Kansai International Airport
RJBB : now visible

Airfield :











YOU CAN JOIN US ON...

 
LOGIN :

Register | Disclaimer

   EN    FR    IT 

 









Legend :    VFR   Marginal VFR   IFR   Intensive IFR   Very Intensive IFR
Visi :
Ceiling :
>= 8 km
>= 3000ft
5 to 8 km
1000 to 3000 ft
1500m to 5 km
500 to 1000 ft
800 to 1500m
200 to 500 ft
< 800m
< 200 ft
Symbols :   Thunderstorms  Fog  Heavy snow  Heavy precipitations  Wind > 20 kt






- Airport Elevation : 26 ft
- IATA code : KIX


RJBB - Kansai International

CURRENT METAR :
  • 250800Z 03012KT 9999 FEW030 SCT100 BKN120 09/01 Q1026 NOSIG

EXPIRED METARs :
  • 250730Z 03012KT 9999 FEW030 SCT100 BKN120 10/01 Q1026 NOSIG
  • 250700Z 03012KT 9999 FEW030 SCT120 BKN150 10/01 Q1026 NOSIG
  • 250630Z 04009KT 9999 FEW030 SCT100 BKN150 10/01 Q1027 NOSIG
  • 250600Z 05008KT 9999 FEW030 SCT100 BKN150 10/01 Q1027 NOSIG
  • 250530Z 04010KT 9999 FEW030 SCT130 BKN160 10/00 Q1027 NOSIG

TAF TAF RJBB
Valid from the 25 at 06:00 until the 26 at 12:00 UTC


250506Z 2506/2612 04013KT 9999 FEW030



MET'MAP, your aeronautical weather chart ! - Copyright ORBIFLY December 2007 - Disclaimer

ORBIFLY MET'MAP TEAM :

Programming & Development : Alexandra Zaïnal
Concept & original design : Baudouin d'Aumeries
Assistance for programming : Marc-Olivier Méhu
Technical & hardware support : Manuel Goepfert

Contact : metmap@orbifly.com




SOURCES & CREDITS :

   NOAA       Earth
Advisory